createdAt,value
2017-07-21T00:00:39.499Z,3.80
2017-07-21T00:03:06.967Z,3.27
2017-07-21T00:05:34.457Z,3.27
2017-07-21T00:08:01.919Z,3.30
2017-07-21T00:10:29.386Z,3.53
2017-07-21T00:12:56.865Z,2.67
2017-07-21T00:15:24.324Z,3.60
2017-07-21T00:17:51.789Z,3.20
2017-07-21T00:20:19.275Z,3.60
2017-07-21T00:22:47.505Z,2.80
2017-07-21T00:25:14.973Z,2.67
2017-07-21T00:27:42.447Z,3.47
2017-07-21T00:30:09.902Z,3.60
2017-07-21T00:32:37.370Z,2.73
2017-07-21T00:35:05.683Z,3.27
2017-07-21T00:37:33.155Z,3.70
2017-07-21T00:40:00.616Z,3.83
2017-07-21T00:42:28.110Z,2.83
2017-07-21T00:44:55.573Z,2.97
2017-07-21T00:47:24.420Z,3.17
2017-07-21T00:49:51.896Z,3.33
2017-07-21T00:52:19.360Z,3.43
2017-07-21T00:54:46.821Z,3.90
2017-07-21T00:57:14.299Z,3.50
2017-07-21T00:59:42.538Z,3.70
2017-07-21T01:02:09.996Z,3.43
2017-07-21T01:04:37.476Z,4.00
2017-07-21T01:07:05.793Z,3.20
2017-07-21T01:09:33.268Z,2.93
2017-07-21T01:12:00.750Z,4.07
2017-07-21T01:14:28.219Z,5.40
2017-07-21T01:16:55.681Z,3.20
2017-07-21T01:19:23.918Z,3.03
2017-07-21T01:21:51.374Z,2.77
2017-07-21T01:24:18.843Z,3.60
2017-07-21T01:26:46.375Z,3.63
2017-07-21T01:29:14.607Z,2.90
2017-07-21T01:31:42.838Z,4.13
2017-07-21T01:34:10.303Z,4.37
2017-07-21T01:36:37.776Z,4.20
2017-07-21T01:39:05.234Z,3.43
2017-07-21T01:41:32.712Z,3.67
2017-07-21T01:44:00.177Z,3.33
2017-07-21T01:46:27.647Z,3.53
2017-07-21T01:48:56.446Z,2.80
2017-07-21T01:51:24.299Z,4.20
2017-07-21T01:53:51.759Z,3.90
2017-07-21T01:56:19.243Z,3.70
2017-07-21T01:58:46.706Z,3.60
2017-07-21T02:01:14.880Z,3.90
2017-07-21T02:03:42.343Z,3.23
2017-07-21T02:06:09.804Z,4.30
2017-07-21T02:08:37.289Z,3.40
2017-07-21T02:11:05.531Z,4.67
2017-07-21T02:13:32.990Z,4.07
2017-07-21T02:16:01.243Z,3.10
2017-07-21T02:18:28.723Z,4.23
2017-07-21T02:20:56.178Z,4.07
2017-07-21T02:23:23.644Z,4.00
2017-07-21T02:25:51.118Z,3.50
2017-07-21T02:28:19.347Z,4.00
2017-07-21T02:30:46.814Z,3.13
2017-07-21T02:33:14.288Z,4.20
2017-07-21T02:35:41.752Z,3.60
2017-07-21T02:38:09.215Z,4.30
2017-07-21T02:40:37.452Z,4.47
2017-07-21T02:43:04.907Z,3.93
2017-07-21T02:45:32.362Z,4.43
2017-07-21T02:47:59.843Z,4.23
2017-07-21T02:50:27.299Z,4.83
2017-07-21T02:52:54.775Z,3.70
2017-07-21T02:55:23.371Z,5.43
2017-07-21T02:57:51.603Z,4.47
2017-07-21T03:00:19.063Z,5.30
2017-07-21T03:02:46.545Z,4.70
2017-07-21T03:05:14.164Z,5.27
2017-07-21T03:07:41.621Z,3.50
2017-07-21T03:10:09.091Z,4.13
2017-07-21T03:12:36.556Z,4.43
2017-07-21T03:15:04.024Z,4.23
2017-07-21T03:17:31.500Z,4.27
2017-07-21T03:19:59.764Z,4.47
2017-07-21T03:22:27.998Z,4.07
2017-07-21T03:24:55.478Z,4.67
2017-07-21T03:27:22.942Z,3.60
2017-07-21T03:29:50.401Z,4.87
2017-07-21T03:32:17.877Z,4.70
2017-07-21T03:34:45.346Z,4.87
2017-07-21T03:37:12.831Z,5.00
2017-07-21T03:39:40.315Z,4.13
2017-07-21T03:42:07.787Z,4.20
2017-07-21T03:44:35.242Z,4.77
2017-07-21T03:47:02.710Z,3.63
2017-07-21T03:49:30.960Z,4.90
2017-07-21T03:51:59.213Z,5.10
2017-07-21T03:54:26.688Z,3.43
2017-07-21T03:56:54.143Z,4.90
2017-07-21T03:59:21.689Z,5.30
2017-07-21T04:01:49.163Z,4.13
2017-07-21T04:04:16.622Z,4.73
2017-07-21T04:06:44.087Z,4.07
2017-07-21T04:09:11.552Z,4.80
2017-07-21T04:11:39.782Z,4.77
2017-07-21T04:14:07.248Z,4.90
2017-07-21T04:16:35.512Z,5.77
2017-07-21T04:19:02.980Z,5.63
2017-07-21T04:21:30.443Z,5.20
2017-07-21T04:23:57.928Z,4.90
2017-07-21T04:26:25.403Z,5.60
2017-07-21T04:28:52.896Z,5.07
2017-07-21T04:31:20.376Z,6.03
2017-07-21T04:33:47.841Z,4.97
2017-07-21T04:36:15.309Z,4.63
2017-07-21T04:38:42.775Z,5.30
2017-07-21T04:41:11.762Z,5.30
2017-07-21T04:43:39.216Z,4.63
2017-07-21T04:46:06.704Z,5.23
2017-07-21T04:48:34.807Z,4.20
2017-07-21T04:51:02.269Z,5.03
2017-07-21T04:53:29.780Z,5.47
2017-07-21T04:55:58.007Z,5.07
2017-07-21T04:58:25.474Z,4.20
2017-07-21T05:00:52.958Z,5.73
2017-07-21T05:03:21.183Z,4.23
2017-07-21T05:05:48.652Z,5.27
2017-07-21T05:08:16.135Z,4.73
2017-07-21T05:10:44.256Z,4.63
2017-07-21T05:13:11.732Z,5.07
2017-07-21T05:15:39.204Z,4.60
2017-07-21T05:18:06.672Z,4.40
2017-07-21T05:20:34.912Z,5.23
2017-07-21T05:23:02.388Z,4.80
2017-07-21T05:25:29.855Z,4.13
2017-07-21T05:27:57.318Z,4.87
2017-07-21T05:30:25.556Z,4.60
2017-07-21T05:32:53.255Z,4.40
2017-07-21T05:35:20.707Z,4.33
2017-07-21T05:37:48.178Z,5.37
2017-07-21T05:40:16.412Z,4.73
2017-07-21T05:42:43.916Z,4.20
2017-07-21T05:45:12.393Z,3.83
2017-07-21T05:47:40.616Z,5.17
2017-07-21T05:50:08.088Z,4.07
2017-07-21T05:52:35.559Z,4.23
2017-07-21T05:55:03.261Z,4.20
2017-07-21T05:57:30.730Z,4.13
2017-07-21T05:59:58.198Z,3.23
2017-07-21T06:02:25.680Z,4.37
2017-07-21T06:04:53.143Z,3.63
2017-07-21T06:07:20.660Z,4.00
2017-07-21T06:09:48.131Z,3.30
2017-07-21T06:12:15.600Z,3.67
2017-07-21T06:14:43.083Z,4.27
2017-07-21T06:17:10.538Z,3.37
2017-07-21T06:19:38.018Z,3.20
2017-07-21T06:22:06.271Z,3.57
2017-07-21T06:24:34.015Z,5.00
2017-07-21T06:27:01.480Z,4.10
2017-07-21T06:29:28.960Z,3.10
2017-07-21T06:31:56.426Z,3.17
2017-07-21T06:34:24.660Z,3.17
2017-07-21T06:36:52.164Z,3.00
2017-07-21T06:39:20.396Z,3.93
2017-07-21T06:41:47.857Z,3.60
2017-07-21T06:44:15.334Z,4.20
2017-07-21T06:46:42.799Z,3.63
2017-07-21T06:49:11.048Z,3.50
2017-07-21T06:51:38.517Z,3.93
2017-07-21T06:54:05.996Z,2.70
2017-07-21T06:56:34.229Z,3.80
2017-07-21T06:59:01.701Z,3.17
2017-07-21T07:01:29.168Z,3.90
2017-07-21T07:03:57.393Z,3.30
2017-07-21T07:06:24.867Z,2.97
2017-07-21T07:08:52.344Z,4.40
2017-07-21T07:11:19.812Z,3.50
2017-07-21T07:13:48.068Z,3.83
2017-07-21T07:16:15.540Z,4.00
2017-07-21T07:18:43.003Z,3.47
2017-07-21T07:21:11.273Z,3.63
2017-07-21T07:23:38.729Z,3.70
2017-07-21T07:26:06.185Z,3.23
2017-07-21T07:28:33.657Z,3.90
2017-07-21T07:31:01.897Z,3.50
2017-07-21T07:33:29.364Z,3.30
2017-07-21T07:35:56.845Z,3.10
2017-07-21T07:38:25.074Z,4.77
2017-07-21T07:40:52.596Z,3.37
2017-07-21T07:43:20.070Z,4.33
2017-07-21T07:45:47.558Z,3.10
2017-07-21T07:48:15.041Z,4.30
2017-07-21T07:50:42.523Z,3.63
2017-07-21T07:53:09.981Z,3.00
2017-07-21T07:55:37.462Z,3.93
2017-07-21T07:58:04.935Z,3.23
2017-07-21T08:00:32.399Z,3.20
2017-07-21T08:02:59.869Z,3.07
2017-07-21T08:05:27.380Z,3.40
2017-07-21T08:07:55.783Z,3.63
2017-07-21T08:10:23.240Z,3.90
2017-07-21T08:12:50.725Z,3.10
2017-07-21T08:15:18.193Z,2.70
2017-07-21T08:17:46.410Z,2.83
2017-07-21T08:20:15.233Z,2.90
2017-07-21T08:22:42.695Z,3.17
2017-07-21T08:25:10.162Z,3.07
2017-07-21T08:27:37.639Z,3.33
2017-07-21T08:30:05.098Z,2.50
2017-07-21T08:32:33.085Z,3.10
2017-07-21T08:35:00.555Z,3.20
2017-07-21T08:37:28.027Z,2.77
2017-07-21T08:39:55.483Z,3.17
2017-07-21T08:42:23.260Z,2.87
2017-07-21T08:44:50.724Z,3.43
2017-07-21T08:47:18.181Z,3.07
2017-07-21T08:49:45.659Z,2.80
2017-07-21T08:52:13.116Z,2.90
2017-07-21T08:54:40.580Z,3.20
2017-07-21T08:57:08.092Z,3.20
2017-07-21T08:59:35.559Z,2.47
2017-07-21T09:02:03.376Z,3.30
2017-07-21T09:04:30.845Z,3.60
2017-07-21T09:06:58.308Z,2.30
2017-07-21T09:09:25.854Z,3.47
2017-07-21T09:11:53.333Z,2.93
2017-07-21T09:14:20.822Z,5.60
2017-07-21T09:16:49.111Z,3.40
2017-07-21T09:19:02.680Z,2.97
2017-07-21T09:19:16.589Z,3.27
2017-07-21T09:21:30.547Z,2.37
2017-07-21T09:21:44.055Z,3.27
2017-07-21T09:23:58.398Z,3.00
2017-07-21T09:24:11.514Z,2.97
2017-07-21T09:26:25.870Z,2.57
2017-07-21T09:26:39.001Z,2.50
2017-07-21T09:28:53.718Z,2.70
2017-07-21T09:29:06.459Z,2.60
2017-07-21T09:31:21.181Z,2.60
2017-07-21T09:31:33.919Z,3.27
2017-07-21T09:33:49.046Z,3.10
2017-07-21T09:34:01.384Z,2.57
2017-07-21T09:36:16.507Z,2.70
2017-07-21T09:36:28.858Z,3.03
2017-07-21T09:38:44.350Z,2.70
2017-07-21T09:38:56.360Z,2.90
2017-07-21T09:41:11.828Z,2.30
2017-07-21T09:41:23.841Z,2.50
2017-07-21T09:43:39.689Z,2.50
2017-07-21T09:43:51.311Z,3.20
2017-07-21T09:46:07.549Z,2.40
2017-07-21T09:46:18.772Z,3.00
2017-07-21T09:48:35.013Z,2.70
2017-07-21T09:48:46.239Z,2.73
2017-07-21T09:51:02.866Z,2.57
2017-07-21T09:51:13.702Z,2.93
2017-07-21T09:53:30.318Z,2.43
2017-07-21T09:53:41.937Z,2.83
2017-07-21T09:55:57.819Z,2.60
2017-07-21T09:56:09.425Z,3.83
2017-07-21T09:58:25.291Z,2.67
2017-07-21T09:58:37.690Z,3.00
2017-07-21T10:00:52.750Z,2.67
2017-07-21T10:01:05.939Z,3.00
2017-07-21T10:03:20.231Z,2.93
2017-07-21T10:03:34.247Z,3.17
2017-07-21T10:05:47.677Z,2.30
2017-07-21T10:06:02.483Z,4.07
2017-07-21T10:08:29.943Z,3.20
2017-07-21T10:10:57.418Z,3.10
2017-07-21T10:13:24.898Z,2.63
2017-07-21T10:15:52.360Z,3.33
2017-07-21T10:18:19.839Z,3.00
2017-07-21T10:20:47.311Z,2.87
2017-07-21T10:23:14.783Z,3.13
2017-07-21T10:25:42.250Z,3.07
2017-07-21T10:28:09.705Z,2.53
2017-07-21T10:30:37.173Z,3.63
2017-07-21T10:33:04.657Z,2.33
2017-07-21T10:35:32.935Z,2.47
2017-07-21T10:38:01.154Z,3.33
2017-07-21T10:40:28.626Z,2.60
2017-07-21T10:42:56.092Z,3.13
2017-07-21T10:45:23.568Z,2.87
2017-07-21T10:47:51.039Z,2.97
2017-07-21T10:50:19.268Z,2.90
2017-07-21T10:52:46.727Z,3.37
2017-07-21T10:55:14.522Z,2.60
2017-07-21T10:57:41.979Z,2.63
2017-07-21T11:00:09.434Z,3.87
2017-07-21T11:02:37.675Z,2.80
2017-07-21T11:05:05.147Z,3.20
2017-07-21T11:07:32.636Z,4.00
2017-07-21T11:10:00.939Z,3.07
2017-07-21T11:12:28.402Z,2.47
2017-07-21T11:14:55.864Z,2.23
2017-07-21T11:17:23.339Z,3.73
2017-07-21T11:19:50.810Z,2.80
2017-07-21T11:22:18.289Z,2.70
2017-07-21T11:24:46.528Z,2.57
2017-07-21T11:27:13.994Z,3.40
2017-07-21T11:29:41.483Z,2.60
2017-07-21T11:32:09.733Z,2.77
2017-07-21T11:34:37.211Z,2.77
2017-07-21T11:37:05.436Z,2.80
2017-07-21T11:39:34.198Z,2.70
2017-07-21T11:42:01.665Z,2.47
2017-07-21T11:44:29.118Z,2.67
2017-07-21T11:46:56.615Z,2.30
2017-07-21T11:49:24.079Z,2.57
2017-07-21T11:51:51.531Z,1.60
2017-07-21T11:54:19.041Z,1.90
2017-07-21T11:56:46.546Z,2.30
2017-07-21T11:59:14.011Z,2.47
2017-07-21T12:01:41.591Z,1.83
2017-07-21T12:04:09.060Z,2.00
2017-07-21T12:06:36.529Z,1.50
2017-07-21T12:09:03.995Z,1.57
2017-07-21T12:11:31.478Z,1.57
2017-07-21T12:13:58.952Z,1.90
2017-07-21T12:16:26.419Z,1.97
2017-07-21T12:18:54.661Z,2.50
2017-07-21T12:21:22.125Z,1.90
2017-07-21T12:23:49.608Z,1.50
2017-07-21T12:26:17.830Z,1.57
2017-07-21T12:28:45.313Z,2.07
2017-07-21T12:31:13.668Z,1.50
2017-07-21T12:33:41.138Z,1.60
2017-07-21T12:36:08.615Z,1.80
2017-07-21T12:38:36.183Z,2.13
2017-07-21T12:41:04.407Z,1.80
2017-07-21T12:43:31.961Z,2.00
2017-07-21T12:45:59.444Z,1.77
2017-07-21T12:48:26.914Z,2.00
2017-07-21T12:50:54.378Z,1.70
2017-07-21T12:53:22.615Z,1.40
2017-07-21T12:55:50.071Z,2.10
2017-07-21T12:58:17.550Z,1.73
2017-07-21T13:00:45.024Z,1.30
2017-07-21T13:03:13.111Z,2.20
2017-07-21T13:05:40.572Z,1.47
2017-07-21T13:08:08.100Z,1.50
2017-07-21T13:10:35.563Z,1.80
2017-07-21T13:13:03.081Z,1.80
2017-07-21T13:15:30.554Z,1.70
2017-07-21T13:17:58.019Z,1.83
2017-07-21T13:20:25.483Z,1.77
2017-07-21T13:22:53.402Z,2.07
2017-07-21T13:25:20.860Z,2.80
2017-07-21T13:27:48.319Z,2.20
2017-07-21T13:30:15.796Z,2.00
2017-07-21T13:32:43.279Z,2.20
2017-07-21T13:35:10.735Z,1.50
2017-07-21T13:37:38.211Z,1.73
2017-07-21T13:40:06.463Z,2.40
2017-07-21T13:42:33.959Z,2.17
2017-07-21T13:45:01.441Z,1.63
2017-07-21T13:47:28.955Z,1.50
2017-07-21T13:49:56.419Z,2.73
2017-07-21T13:52:24.499Z,1.37
2017-07-21T13:54:51.958Z,1.50
2017-07-21T13:57:19.433Z,1.60
2017-07-21T13:59:46.916Z,1.50
2017-07-21T14:02:14.381Z,1.70
2017-07-21T14:04:41.837Z,1.70
2017-07-21T14:07:09.368Z,1.63
2017-07-21T14:09:36.828Z,2.00
2017-07-21T14:12:04.282Z,1.17
2017-07-21T14:14:31.772Z,1.63
2017-07-21T14:16:59.252Z,1.60
2017-07-21T14:19:27.482Z,1.57
2017-07-21T14:21:54.987Z,1.50
2017-07-21T14:24:23.218Z,1.40
2017-07-21T14:26:50.712Z,1.90
2017-07-21T14:29:18.979Z,1.67
2017-07-21T14:31:46.465Z,1.97
2017-07-21T14:34:14.385Z,2.20
2017-07-21T14:36:41.918Z,1.70
2017-07-21T14:39:09.375Z,1.37
2017-07-21T14:41:36.831Z,1.40
2017-07-21T14:44:04.303Z,1.60
2017-07-21T14:46:31.782Z,2.10
2017-07-21T14:48:59.252Z,1.90
2017-07-21T14:51:26.736Z,1.17
2017-07-21T14:53:54.199Z,1.57
2017-07-21T14:56:21.659Z,1.50
2017-07-21T14:58:49.140Z,1.50
2017-07-21T15:01:16.600Z,1.93
2017-07-21T15:03:44.064Z,1.47
2017-07-21T15:06:11.615Z,1.73
2017-07-21T15:08:39.097Z,1.90
2017-07-21T15:11:06.558Z,1.70
2017-07-21T15:13:34.049Z,1.50
2017-07-21T15:16:01.530Z,1.20
2017-07-21T15:18:28.999Z,1.40
2017-07-21T15:20:56.471Z,1.50
2017-07-21T15:23:24.608Z,1.70
2017-07-21T15:25:52.072Z,1.60
2017-07-21T15:28:19.549Z,2.10
2017-07-21T15:30:47.007Z,2.07
2017-07-21T15:33:15.767Z,1.90
2017-07-21T15:35:43.262Z,1.47
2017-07-21T15:38:11.521Z,1.80
2017-07-21T15:40:38.974Z,1.00
2017-07-21T15:43:06.444Z,1.40
2017-07-21T15:45:33.953Z,1.33
2017-07-21T15:48:01.463Z,1.80
2017-07-21T15:50:28.934Z,2.33
2017-07-21T15:52:56.391Z,1.67
2017-07-21T15:55:25.418Z,1.23
2017-07-21T15:57:53.795Z,1.40
2017-07-21T16:00:21.264Z,2.00
2017-07-21T16:02:48.738Z,1.10
2017-07-21T16:05:16.927Z,1.63
2017-07-21T16:07:45.105Z,1.40
2017-07-21T16:10:13.175Z,1.30
2017-07-21T16:12:40.647Z,1.50
2017-07-21T16:15:08.105Z,1.37
2017-07-21T16:17:36.412Z,1.60
2017-07-21T16:20:03.898Z,1.70
2017-07-21T16:22:31.368Z,1.10
2017-07-21T16:24:58.852Z,1.63
2017-07-21T16:27:26.323Z,1.30
2017-07-21T16:29:54.567Z,1.97
2017-07-21T16:32:22.015Z,1.53
2017-07-21T16:34:49.497Z,1.77
2017-07-21T16:37:17.732Z,2.00
2017-07-21T16:39:45.199Z,1.53
2017-07-21T16:42:12.687Z,1.40
2017-07-21T16:44:40.934Z,1.50
2017-07-21T16:47:08.443Z,1.57
2017-07-21T16:49:36.347Z,1.77
2017-07-21T16:52:03.817Z,2.33
2017-07-21T16:54:31.278Z,1.70
2017-07-21T16:56:58.769Z,1.30
2017-07-21T16:59:26.238Z,1.70
2017-07-21T17:01:53.704Z,1.27
2017-07-21T17:04:21.182Z,1.43
2017-07-21T17:06:48.640Z,1.20
2017-07-21T17:09:16.180Z,1.57
2017-07-21T17:11:43.660Z,1.23
2017-07-21T17:14:11.136Z,2.70
2017-07-21T17:16:38.599Z,1.87
2017-07-21T17:19:06.121Z,1.87
2017-07-21T17:21:34.116Z,2.20
2017-07-21T17:24:01.580Z,1.90
2017-07-21T17:26:29.060Z,3.30
2017-07-21T17:28:57.281Z,2.47
2017-07-21T17:31:24.746Z,2.87
2017-07-21T17:33:52.233Z,2.10
2017-07-21T17:36:19.687Z,2.33
2017-07-21T17:38:47.167Z,1.93
2017-07-21T17:41:15.400Z,1.60
2017-07-21T17:43:42.881Z,1.30
2017-07-21T17:46:10.344Z,1.60
2017-07-21T17:48:38.575Z,1.50
2017-07-21T17:51:06.053Z,1.47
2017-07-21T17:53:34.337Z,1.83
2017-07-21T17:56:01.831Z,1.80
2017-07-21T17:58:29.287Z,2.30
2017-07-21T18:00:56.761Z,2.37
2017-07-21T18:03:24.231Z,2.30
2017-07-21T18:05:51.695Z,1.60
2017-07-21T18:08:19.510Z,3.70
2017-07-21T18:10:53.760Z,1.30
2017-07-21T18:13:21.337Z,1.37
2017-07-21T18:15:48.839Z,1.70
2017-07-21T18:18:16.328Z,1.40
2017-07-21T18:20:43.791Z,1.33
2017-07-21T18:23:11.861Z,1.50
2017-07-21T18:25:39.314Z,1.70
2017-07-21T18:28:06.814Z,2.07
2017-07-21T18:30:34.279Z,2.57
2017-07-21T18:33:02.531Z,4.07
2017-07-21T18:35:30.009Z,4.10
2017-07-21T18:37:57.467Z,3.60
2017-07-21T18:40:25.708Z,2.70
2017-07-21T18:42:53.176Z,3.20
2017-07-21T18:45:20.637Z,2.40
2017-07-21T18:47:48.140Z,1.87
2017-07-21T18:50:15.587Z,2.13
2017-07-21T18:52:43.049Z,1.67
2017-07-21T18:55:10.532Z,1.57
2017-07-21T18:57:37.990Z,1.90
2017-07-21T19:00:05.465Z,1.40
2017-07-21T19:02:33.556Z,1.73
2017-07-21T19:05:01.028Z,1.50
2017-07-21T19:07:28.483Z,1.83
2017-07-21T19:09:55.991Z,1.30
2017-07-21T19:12:23.457Z,1.70
2017-07-21T19:14:50.916Z,1.70
2017-07-21T19:17:18.383Z,1.90
2017-07-21T19:19:45.845Z,1.80
2017-07-21T19:22:13.300Z,1.60
2017-07-21T19:24:40.768Z,2.27
2017-07-21T19:27:08.235Z,2.00
2017-07-21T19:29:36.499Z,1.60
2017-07-21T19:32:03.968Z,1.73
2017-07-21T19:34:31.418Z,2.57
2017-07-21T19:36:58.887Z,1.60
2017-07-21T19:39:27.132Z,1.60
2017-07-21T19:41:55.229Z,2.23
2017-07-21T19:44:22.696Z,1.90
2017-07-21T19:46:50.955Z,2.20
2017-07-21T19:49:18.420Z,2.07
2017-07-21T19:51:45.888Z,1.70
2017-07-21T19:54:13.363Z,1.80
2017-07-21T19:56:40.819Z,1.97
2017-07-21T19:59:08.288Z,1.73
2017-07-21T20:01:35.749Z,2.20
2017-07-21T20:04:03.225Z,2.17
2017-07-21T20:06:30.705Z,2.70
2017-07-21T20:08:58.170Z,2.03
2017-07-21T20:11:26.419Z,1.80
2017-07-21T20:13:54.904Z,1.60
2017-07-21T20:16:22.399Z,2.63
2017-07-21T20:18:50.625Z,1.73
2017-07-21T20:21:18.103Z,2.33
2017-07-21T20:23:45.574Z,2.10
2017-07-21T20:26:14.475Z,2.27
2017-07-21T20:28:41.939Z,2.13
2017-07-21T20:31:09.828Z,2.40
2017-07-21T20:33:37.287Z,2.20
2017-07-21T20:36:04.749Z,2.10
2017-07-21T20:38:32.233Z,2.30
2017-07-21T20:40:59.728Z,1.87
2017-07-21T20:43:27.943Z,1.90
2017-07-21T20:48:29.239Z,2.43
2017-07-21T20:50:57.483Z,2.30
2017-07-21T20:53:24.968Z,2.73
2017-07-21T20:55:52.423Z,2.93
2017-07-21T20:58:19.888Z,2.50
2017-07-21T21:00:48.120Z,2.07
2017-07-21T21:03:15.810Z,2.20
2017-07-21T21:05:43.280Z,2.97
2017-07-21T21:08:10.746Z,2.60
2017-07-21T21:10:38.228Z,2.70
2017-07-21T21:13:05.709Z,2.20
2017-07-21T21:15:33.163Z,1.90
2017-07-21T21:18:00.640Z,2.07
2017-07-21T21:20:28.108Z,2.00
2017-07-21T21:22:55.576Z,2.27
2017-07-21T21:25:23.370Z,2.83
2017-07-21T21:27:50.835Z,2.27
2017-07-21T21:30:18.304Z,1.97
2017-07-21T21:32:45.763Z,2.00
2017-07-21T21:35:13.226Z,2.20
2017-07-21T21:37:40.692Z,2.10
2017-07-21T21:40:08.163Z,2.00
2017-07-21T21:42:35.641Z,2.07
2017-07-21T21:45:03.890Z,1.67
2017-07-21T21:47:31.360Z,2.50
2017-07-21T21:49:58.835Z,2.00
2017-07-21T21:52:27.068Z,2.13
2017-07-21T21:54:54.563Z,2.73
2017-07-21T21:57:22.801Z,2.50
2017-07-21T21:59:50.268Z,2.20
2017-07-21T22:02:17.750Z,2.37
2017-07-21T22:04:45.984Z,2.00
2017-07-21T22:07:13.468Z,2.20
2017-07-21T22:09:40.944Z,2.70
2017-07-21T22:12:08.425Z,2.40
2017-07-21T22:14:35.902Z,2.80
2017-07-21T22:17:03.370Z,2.57
2017-07-21T22:19:30.846Z,2.30
2017-07-21T22:21:58.312Z,2.13
2017-07-21T22:24:25.775Z,1.90
2017-07-21T22:26:55.124Z,2.67
2017-07-21T22:29:22.587Z,2.83
2017-07-21T22:31:50.044Z,2.83
2017-07-21T22:34:17.519Z,3.00
2017-07-21T22:36:44.994Z,2.70
2017-07-21T22:39:12.502Z,2.67
2017-07-21T22:41:39.969Z,2.53
2017-07-21T22:44:07.442Z,2.57
2017-07-21T22:46:34.930Z,3.53
2017-07-21T22:49:02.440Z,3.70
2017-07-21T22:51:29.912Z,2.40
2017-07-21T22:53:57.371Z,2.97
2017-07-21T22:56:24.840Z,2.93
2017-07-21T22:58:52.287Z,2.57
2017-07-21T23:01:19.753Z,2.37
2017-07-21T23:03:47.231Z,3.20
2017-07-21T23:06:14.706Z,4.00
2017-07-21T23:08:42.179Z,3.20
2017-07-21T23:11:09.662Z,3.93
2017-07-21T23:13:37.205Z,3.30
2017-07-21T23:16:04.684Z,3.50
2017-07-21T23:18:32.166Z,3.20
2017-07-21T23:20:59.644Z,3.70
2017-07-21T23:23:27.107Z,3.50
2017-07-21T23:25:55.571Z,3.37
2017-07-21T23:28:24.503Z,3.20
2017-07-21T23:30:52.000Z,2.97
2017-07-21T23:33:19.496Z,2.90
2017-07-21T23:35:46.955Z,3.07
2017-07-21T23:38:14.445Z,3.57
2017-07-21T23:40:41.912Z,3.50
2017-07-21T23:43:09.376Z,2.70
2017-07-21T23:45:36.851Z,3.43
2017-07-21T23:48:05.091Z,3.50
2017-07-21T23:50:32.569Z,3.30
2017-07-21T23:53:00.042Z,3.33
2017-07-21T23:55:27.504Z,3.33
2017-07-21T23:57:56.183Z,4.33
